Queen Of The West — WDF4506 — position and weather

sailwx.info

Track history (hours):
 
Tides and Currents Weather Stations Pressure Air Temp Water Temp Dewpoint Dewpoint Depression Visibility Wind Speed Wind Dir Waves Ship Positions

Queen Of The West

Owner: American Cruise Lines Inc., Delmar, DE. More information available from US FCC via Universal Licensing System and Coast Guard Vessel Documentation Center.

Last reported at 2018-Jul-17 13:16 UTC. Time now 2018-Jul-22 21:58 UTC.
Position N 45°38' W 121°59'.

Length 19 m; draft 2 m.

Type: Passenger vessel. MMSI: 2548262.

Date/timePositionNaut miles runAvg speedWind from/ knotsBaromVisibWave heightAir tempDewpointWater temp
2018-Jul-17 13:16N 45°38' W 121°59'1 4.7
2018-Jul-17 12:57N 45°37' W 122°01'2 5.1
2018-Jul-17 12:29N 45°36' W 122°04'4 6.0
2018-Jul-17 11:50N 45°35' W 122°09'3 6.9
2018-Jul-17 11:24N 45°34' W 122°13'3 7.3
2018-Jul-17 11:00N 45°33' W 122°17'4 7.1
2018-Jul-17 10:30N 45°34' W 122°21'3 6.2
2018-Jul-17 10:00N 45°34' W 122°26'3 6.6
2018-Jul-17 09:29N 45°35' W 122°30'3 6.7
2018-Jul-17 09:00N 45°36' W 122°35'3 6.9
2018-Jul-17 08:30N 45°37' W 122°40'4 7.1
2018-Jul-17 08:00N 45°39' W 122°44'3 6.8
2018-Jul-17 07:31N 45°42' W 122°47'4 7.2
2018-Jul-17 07:00N 45°45' W 122°46'4 7.1
2018-Jul-17 06:31N 45°48' W 122°48'4 7.0
2018-Jul-17 06:00N 45°52' W 122°47'3 6.9
2018-Jul-17 05:30N 45°55' W 122°49'3 6.8
2018-Jul-17 05:00N 45°58' W 122°50'1 2.8
2018-Jul-17 04:30N 45°60' W 122°51'0 0.0
2018-Jul-17 04:00N 45°60' W 122°51'0 0.0
2018-Jul-17 03:30N 45°60' W 122°51'0 0.0
2018-Jul-17 02:59N 45°60' W 122°51'0 0.0
2018-Jul-17 02:30N 45°60' W 122°51'0 0.0
2018-Jul-17 02:00N 45°60' W 122°51'0 0.0
2018-Jul-17 01:30N 45°60' W 122°51'0 0.0
2018-Jul-17 01:00N 45°60' W 122°51'0 0.0
2018-Jul-17 00:30N 45°60' W 122°51'0 0.0
2018-Jul-16 23:29N 45°60' W 122°51'0 0.0
2018-Jul-16 23:00N 45°60' W 122°51'0 0.0
2018-Jul-16 22:29N 45°60' W 122°51'0 0.0
2018-Jul-16 22:00N 45°60' W 122°51'0 0.0
2018-Jul-16 21:30N 45°60' W 122°51'0 0.0
2018-Jul-16 21:00N 45°60' W 122°51'0 0.0
2018-Jul-16 20:30N 45°60' W 122°51'0 0.0
2018-Jul-16 20:00N 45°60' W 122°51'0 0.0
2018-Jul-16 19:31N 45°60' W 122°51'0 0.0
2018-Jul-16 19:00N 45°60' W 122°51'1 1.2
2018-Jul-16 18:30N 46°00' W 122°51'3 5.9
2018-Jul-16 18:01N 46°03' W 122°53'4 7.4
2018-Jul-16 17:30N 46°06' W 122°56'4 8.0
2018-Jul-16 17:00N 46°08' W 123°01'4 7.1
2018-Jul-16 16:30N 46°10' W 123°05'4 7.8
2018-Jul-16 16:00N 46°11' W 123°11'4 8.1
2018-Jul-16 15:30N 46°09' W 123°16'4 8.1
2018-Jul-16 15:00N 46°09' W 123°21'4 7.1
2018-Jul-16 14:30N 46°11' W 123°26'4 8.2
2018-Jul-16 14:00N 46°15' W 123°26'4 7.7
2018-Jul-16 13:30N 46°16' W 123°32'5 8.9
2018-Jul-16 13:00N 46°16' W 123°38'4 9.1
2018-Jul-16 12:30N 46°14' W 123°44'4 8.5
2018-Jul-16 12:00N 46°11' W 123°49'0 0.1
2018-Jul-16 11:30N 46°11' W 123°49'0 0.0
2018-Jul-16 11:00N 46°11' W 123°49'0 0.0
2018-Jul-16 10:30N 46°11' W 123°49'0 0.0
2018-Jul-16 10:00N 46°11' W 123°49'0 0.0
2018-Jul-16 09:30N 46°11' W 123°49'0 0.0
2018-Jul-16 09:00N 46°11' W 123°49'0 0.0
2018-Jul-16 08:30N 46°11' W 123°49'0 0.0
2018-Jul-16 08:00N 46°11' W 123°49'0 0.0
2018-Jul-16 07:30N 46°11' W 123°49'0 0.0
2018-Jul-16 06:57N 46°11' W 123°49'0 0.0
2018-Jul-16 06:27N 46°11' W 123°49'0 0.0
2018-Jul-16 05:57N 46°11' W 123°49'0 0.0
2018-Jul-16 05:30N 46°11' W 123°49'0 0.0
2018-Jul-16 05:00N 46°11' W 123°49'0 0.0
2018-Jul-16 04:30N 46°11' W 123°49'0 0.0
2018-Jul-16 04:00N 46°11' W 123°49'0 0.0
2018-Jul-16 03:30N 46°11' W 123°49'0 0.0
2018-Jul-16 03:00N 46°11' W 123°49'0 0.0
2018-Jul-16 02:24N 46°11' W 123°49'0 0.0
2018-Jul-16 02:00N 46°11' W 123°49'0 0.0
2018-Jul-16 01:30N 46°11' W 123°49'0 0.0
2018-Jul-16 01:00N 46°11' W 123°49'0 0.0
2018-Jul-16 00:30N 46°11' W 123°49'0 0.0
2018-Jul-16 00:00N 46°11' W 123°49'0 0.0
2018-Jul-15 23:30N 46°11' W 123°49'0 0.0
2018-Jul-15 23:00N 46°11' W 123°49'0 0.0
2018-Jul-15 22:30N 46°11' W 123°49'0 0.0
2018-Jul-15 22:00N 46°11' W 123°49'0 0.0
2018-Jul-15 21:30N 46°11' W 123°49'0 0.0
2018-Jul-15 21:00N 46°11' W 123°49'0 0.0
2018-Jul-15 20:30N 46°11' W 123°49'0 0.0
2018-Jul-15 20:00N 46°11' W 123°49'0 0.0
2018-Jul-15 19:30N 46°11' W 123°49'0 0.0
2018-Jul-15 19:00N 46°11' W 123°49'0 0.0
2018-Jul-15 18:30N 46°11' W 123°49'0 0.0
2018-Jul-15 18:00N 46°11' W 123°49'0 0.0
2018-Jul-15 17:30N 46°11' W 123°49'0 0.0
2018-Jul-15 17:00N 46°11' W 123°49'0 0.0
2018-Jul-15 16:30N 46°11' W 123°49'0 0.0
2018-Jul-15 16:00N 46°11' W 123°49'0 0.0
2018-Jul-15 15:30N 46°11' W 123°49'0 0.0
2018-Jul-15 15:00N 46°11' W 123°49'0 0.0
2018-Jul-15 14:30N 46°11' W 123°49'0 0.0
2018-Jul-15 14:00N 46°11' W 123°49'0 0.0
2018-Jul-15 13:27N 46°11' W 123°49'0 0.0
2018-Jul-15 13:00N 46°11' W 123°49'0 0.0
2018-Jul-15 12:30N 46°11' W 123°49'0 0.0
2018-Jul-15 12:00N 46°11' W 123°49'0 0.0
2018-Jul-15 11:30N 46°11' W 123°49'0 0.0
2018-Jul-15 10:57N 46°11' W 123°49'0 0.0
2018-Jul-15 10:30N 46°11' W 123°49'0 0.0
2018-Jul-15 10:00N 46°11' W 123°49'0 0.0
2018-Jul-15 09:30N 46°11' W 123°49'0 0.0
2018-Jul-15 09:00N 46°11' W 123°49'0 0.0
2018-Jul-15 08:30N 46°11' W 123°49'0 0.0
2018-Jul-15 07:57N 46°11' W 123°49'0 0.0
2018-Jul-15 07:30N 46°11' W 123°49'0 0.0
2018-Jul-15 06:57N 46°11' W 123°49'0 0.0
2018-Jul-15 06:30N 46°11' W 123°49'0 0.0
2018-Jul-15 06:00N 46°11' W 123°49'0 0.0
2018-Jul-15 05:30N 46°11' W 123°49'0 0.0
2018-Jul-15 05:00N 46°11' W 123°49'0 0.0
2018-Jul-15 04:30N 46°11' W 123°49'0 0.2
2018-Jul-15 04:01N 46°11' W 123°49'4 8.1
2018-Jul-15 03:30N 46°14' W 123°44'611.1
2018-Jul-15 03:01N 46°15' W 123°37'4 8.8
2018-Jul-15 02:30N 46°16' W 123°30'5 9.4
2018-Jul-15 02:01N 46°13' W 123°25'5 9.3
2018-Jul-15 01:30N 46°09' W 123°22'5 9.9
2018-Jul-15 01:00N 46°09' W 123°15'5 9.6
2018-Jul-15 00:30N 46°11' W 123°09'5 9.6
2018-Jul-15 00:01N 46°09' W 123°03'8 9.9
2018-Jul-14 23:13N 46°05' W 122°54'210.7
2018-Jul-14 23:00N 46°02' W 122°53'510.8
2018-Jul-14 22:30N 45°58' W 122°49'611.5
2018-Jul-14 22:01N 45°52' W 122°47'611.1
2018-Jul-14 21:30N 45°47' W 122°46'611.1
2018-Jul-14 20:59N 45°41' W 122°47'510.4
2018-Jul-14 20:30N 45°37' W 122°41'1 1.1
2018-Jul-14 19:45N 45°37' W 122°40'0 0.0
2018-Jul-14 19:30N 45°37' W 122°40'0 0.0
2018-Jul-14 18:57N 45°37' W 122°40'0 0.0
2018-Jul-14 18:27N 45°37' W 122°40'0 0.0
2018-Jul-14 17:57N 45°37' W 122°40'0 0.0
2018-Jul-14 17:27N 45°37' W 122°40'0 0.0
2018-Jul-14 17:00N 45°37' W 122°40'0 0.0
2018-Jul-14 16:27N 45°37' W 122°40'0 0.0
2018-Jul-14 16:00N 45°37' W 122°40'0 0.0
2018-Jul-14 15:30N 45°37' W 122°40'0 0.0
2018-Jul-14 14:57N 45°37' W 122°40'0 0.0
2018-Jul-14 14:24N 45°37' W 122°40'0 0.0
2018-Jul-14 13:27N 45°37' W 122°40'0 0.0
2018-Jul-14 13:00N 45°37' W 122°40'0 0.0
2018-Jul-14 12:30N 45°37' W 122°40'0 0.0
2018-Jul-14 11:48N 45°37' W 122°40'0 0.0
2018-Jul-14 11:30N 45°37' W 122°40'0 0.0
2018-Jul-14 10:51N 45°37' W 122°40'0 0.0
2018-Jul-14 10:24N 45°37' W 122°40'0 0.0
2018-Jul-14 09:54N 45°37' W 122°40'0 0.0
2018-Jul-14 09:09N 45°37' W 122°40'0 0.0
2018-Jul-14 08:54N 45°37' W 122°40'0 0.0
2018-Jul-14 08:27N 45°37' W 122°40'0 0.0
2018-Jul-14 08:00N 45°37' W 122°40'0 0.0
2018-Jul-14 07:24N 45°37' W 122°40'0 0.0
2018-Jul-14 06:57N 45°37' W 122°40'0 0.0
2018-Jul-14 06:30N 45°37' W 122°40'0 0.0
2018-Jul-14 06:00N 45°37' W 122°40'0 0.0
2018-Jul-14 05:27N 45°37' W 122°40'0 0.0
2018-Jul-14 04:57N 45°37' W 122°40'0 0.0
2018-Jul-14 04:30N 45°37' W 122°40'0 0.0
2018-Jul-14 04:00N 45°37' W 122°40'0 0.0
2018-Jul-14 03:21N 45°37' W 122°40'0 0.0
2018-Jul-14 03:00N 45°37' W 122°40'0 0.0
2018-Jul-14 02:27N 45°37' W 122°40'0 0.0
2018-Jul-14 01:33N 45°37' W 122°40'0 0.0
2018-Jul-14 01:30N 45°37' W 122°40'0 0.0
2018-Jul-14 01:00N 45°37' W 122°40'0 0.0
2018-Jul-14 00:24N 45°37' W 122°40'0 0.0
2018-Jul-13 23:45N 45°37' W 122°40'0 0.0
2018-Jul-13 23:30N 45°37' W 122°40'0 0.0
2018-Jul-13 22:57N 45°37' W 122°40'0 0.0
2018-Jul-13 22:30N 45°37' W 122°40'0 0.0
2018-Jul-13 21:57N 45°37' W 122°40'0 0.0
2018-Jul-13 21:30N 45°37' W 122°40'0 0.0
2018-Jul-13 21:00N 45°37' W 122°40'0 0.4
2018-Jul-13 20:16N 45°37' W 122°41'2 7.0
2018-Jul-13 20:00N 45°38' W 122°43'4 7.9
2018-Jul-13 19:30N 45°41' W 122°47'4 8.0
2018-Jul-13 19:00N 45°45' W 122°46'4 7.9
2018-Jul-13 18:30N 45°49' W 122°48'4 7.5
2018-Jul-13 18:00N 45°52' W 122°47'4 7.5
2018-Jul-13 17:30N 45°56' W 122°48'4 7.6
2018-Jul-13 17:00N 45°60' W 122°51'4 7.5
2018-Jul-13 16:30N 46°03' W 122°53'3 7.1
2018-Jul-13 16:00N 46°06' W 122°56'4 7.7
2018-Jul-13 15:30N 46°08' W 123°01'4 7.3
2018-Jul-13 15:00N 46°10' W 123°05'7 6.7
2018-Jul-13 14:00N 46°10' W 123°15'4 7.3
2018-Jul-13 13:30N 46°09' W 123°20'4 7.1
2018-Jul-13 13:00N 46°10' W 123°24'3 6.6
2018-Jul-13 12:30N 46°13' W 123°25'4 7.2
2018-Jul-13 12:00N 46°16' W 123°28'4 7.3
2018-Jul-13 11:30N 46°15' W 123°33'4 7.4
2018-Jul-13 11:00N 46°16' W 123°39'4 7.8
2018-Jul-13 10:30N 46°14' W 123°44'4 7.3
2018-Jul-13 10:00N 46°12' W 123°48'1 1.9
2018-Jul-13 09:28N 46°11' W 123°49'0 0.0
2018-Jul-13 08:58N 46°11' W 123°49'0 0.0
2018-Jul-13 08:28N 46°11' W 123°49'0 0.0
2018-Jul-13 07:58N 46°11' W 123°49'0 0.0
2018-Jul-13 07:28N 46°11' W 123°49'0 0.0
2018-Jul-13 06:58N 46°11' W 123°49'0 0.0
2018-Jul-13 06:28N 46°11' W 123°49'0 0.0
2018-Jul-13 05:58N 46°11' W 123°49'0 0.0
2018-Jul-13 05:28N 46°11' W 123°49'0 0.0
2018-Jul-13 04:58N 46°11' W 123°49'0 0.0
2018-Jul-13 04:28N 46°11' W 123°49'0 0.0
2018-Jul-13 03:58N 46°11' W 123°49'0 0.0
2018-Jul-13 03:28N 46°11' W 123°49'0 0.0
2018-Jul-13 02:58N 46°11' W 123°49'0 0.0
2018-Jul-13 02:28N 46°11' W 123°49'0 0.0
2018-Jul-13 01:55N 46°11' W 123°49'0 0.0
2018-Jul-13 01:28N 46°11' W 123°49'0 0.0
2018-Jul-13 00:58N 46°11' W 123°49'0 0.0
2018-Jul-13 00:28N 46°11' W 123°49'0 0.0
2018-Jul-12 23:55N 46°11' W 123°49'0 0.0
2018-Jul-12 23:28N 46°11' W 123°49'0 0.0
2018-Jul-12 22:58N 46°11' W 123°49'0 0.0
2018-Jul-12 22:28N 46°11' W 123°49'0 0.0
2018-Jul-12 21:58N 46°11' W 123°49'0 0.0
2018-Jul-12 21:28N 46°11' W 123°49'0 0.0
2018-Jul-12 20:58N 46°11' W 123°49'0 0.0
2018-Jul-12 20:28N 46°11' W 123°49'0 0.0
2018-Jul-12 19:37N 46°11' W 123°49'0 0.0
2018-Jul-12 19:28N 46°11' W 123°49'0 0.0
2018-Jul-12 18:58N 46°11' W 123°49'0 0.0
2018-Jul-12 18:25N 46°11' W 123°49'0 0.0
2018-Jul-12 17:58N 46°11' W 123°49'0 0.0
2018-Jul-12 17:16N 46°11' W 123°49'0 0.0
2018-Jul-12 16:58N 46°11' W 123°49'0 0.0
2018-Jul-12 16:25N 46°11' W 123°49'0 0.0
2018-Jul-12 15:58N 46°11' W 123°49'0 0.0
2018-Jul-12 15:28N 46°11' W 123°49'0 0.0
2018-Jul-12 14:58N 46°11' W 123°49'0 0.0
2018-Jul-12 14:28N 46°11' W 123°49'0 0.0
2018-Jul-12 13:58N 46°11' W 123°49'0 0.0
2018-Jul-12 13:22N 46°11' W 123°49'0 0.0
2018-Jul-12 12:58N 46°11' W 123°49'0 0.0
2018-Jul-12 12:16N 46°11' W 123°49'0 0.0
2018-Jul-12 11:58N 46°11' W 123°49'0 0.0
2018-Jul-12 11:28N 46°11' W 123°49'0 0.0
2018-Jul-12 10:31N 46°11' W 123°49'0 0.0
2018-Jul-12 10:28N 46°11' W 123°49'0 0.0
2018-Jul-12 09:46N 46°11' W 123°49'0 0.0
2018-Jul-12 09:28N 46°11' W 123°49'0 0.0
2018-Jul-12 08:52N 46°11' W 123°49'0 0.0
2018-Jul-12 07:55N 46°11' W 123°49'0 0.0
2018-Jul-12 07:28N 46°11' W 123°49'0 0.0
2018-Jul-12 06:58N 46°11' W 123°49'0 0.0
2018-Jul-12 06:28N 46°11' W 123°49'0 0.0
2018-Jul-12 06:00N 46°11' W 123°49'3 5.8
2018-Jul-12 05:30N 46°13' W 123°46'4 8.6
2018-Jul-12 05:00N 46°15' W 123°40'5 9.2
2018-Jul-12 04:24N 46°16' W 123°33'4 9.3
2018-Jul-12 04:00N 46°16' W 123°27'510.6
2018-Jul-12 03:30N 46°10' W 123°25'710.4
2018-Jul-12 02:48N 46°10' W 123°15'412.0
2018-Jul-12 02:30N 46°11' W 123°10'611.3
2018-Jul-12 02:00N 46°09' W 123°03'611.2
2018-Jul-12 01:31N 46°06' W 122°56'510.4
2018-Jul-12 01:00N 46°01' W 122°52'2 3.9
2018-Jul-12 00:31N 45°60' W 122°51'0 0.0
2018-Jul-12 00:00N 45°60' W 122°51'0 0.0
2018-Jul-11 23:30N 45°60' W 122°51'0 0.0
2018-Jul-11 23:01N 45°60' W 122°51'0 0.0
2018-Jul-11 22:30N 45°60' W 122°51'0 0.0
2018-Jul-11 22:01N 45°60' W 122°51'0 0.0
2018-Jul-11 21:30N 45°60' W 122°51'0 0.0
2018-Jul-11 21:00N 45°60' W 122°51'0 0.0
2018-Jul-11 20:30N 45°60' W 122°51'0 0.0
2018-Jul-11 20:01N 45°60' W 122°51'0 0.0
2018-Jul-11 19:31N 45°60' W 122°51'0 0.0
2018-Jul-11 19:00N 45°60' W 122°51'3 6.1
2018-Jul-11 18:30N 45°57' W 122°48'611.3
2018-Jul-11 18:01N 45°52' W 122°47'510.9
2018-Jul-11 17:30N 45°46' W 122°46'611.4
2018-Jul-11 17:00N 45°40' W 122°46'510.4
2018-Jul-11 16:30N 45°37' W 122°41'611.1
2018-Jul-11 16:00N 45°36' W 122°33'611.9
2018-Jul-11 15:31N 45°34' W 122°25'611.3
2018-Jul-11 15:00N 45°33' W 122°17'611.1
2018-Jul-11 14:30N 45°35' W 122°10'610.4
2018-Jul-11 13:58N 45°37' W 122°02'  
Track history (hours):
 
Tides and Currents Weather Stations Pressure Air Temp Water Temp Dewpoint Dewpoint Depression Visibility Wind Speed Wind Dir Waves Ship Positions

Queen Of The West

Owner: American Cruise Lines Inc., Delmar, DE. More information available from US FCC via Universal Licensing System and Coast Guard Vessel Documentation Center.

Last reported at 2018-Jul-17 13:16 UTC. Time now 2018-Jul-22 21:58 UTC.
Position N 45°38' W 121°59'.

Length 19 m; draft 2 m.

Type: Passenger vessel. MMSI: 2548262.

Date/timePositionNaut miles runAvg speedWind from/ knotsBaromVisibWave heightAir tempDewpointWater temp
2018-Jul-17 13:16N 45°38' W 121°59'1 4.7
2018-Jul-17 12:57N 45°37' W 122°01'2 5.1
2018-Jul-17 12:29N 45°36' W 122°04'4 6.0
2018-Jul-17 11:50N 45°35' W 122°09'3 6.9
2018-Jul-17 11:24N 45°34' W 122°13'3 7.3
2018-Jul-17 11:00N 45°33' W 122°17'4 7.1
2018-Jul-17 10:30N 45°34' W 122°21'3 6.2
2018-Jul-17 10:00N 45°34' W 122°26'3 6.6
2018-Jul-17 09:29N 45°35' W 122°30'3 6.7
2018-Jul-17 09:00N 45°36' W 122°35'3 6.9
2018-Jul-17 08:30N 45°37' W 122°40'4 7.1
2018-Jul-17 08:00N 45°39' W 122°44'3 6.8
2018-Jul-17 07:31N 45°42' W 122°47'4 7.2
2018-Jul-17 07:00N 45°45' W 122°46'4 7.1
2018-Jul-17 06:31N 45°48' W 122°48'4 7.0
2018-Jul-17 06:00N 45°52' W 122°47'3 6.9
2018-Jul-17 05:30N 45°55' W 122°49'3 6.8
2018-Jul-17 05:00N 45°58' W 122°50'1 2.8
2018-Jul-17 04:30N 45°60' W 122°51'0 0.0
2018-Jul-17 04:00N 45°60' W 122°51'0 0.0
2018-Jul-17 03:30N 45°60' W 122°51'0 0.0
2018-Jul-17 02:59N 45°60' W 122°51'0 0.0
2018-Jul-17 02:30N 45°60' W 122°51'0 0.0
2018-Jul-17 02:00N 45°60' W 122°51'0 0.0
2018-Jul-17 01:30N 45°60' W 122°51'0 0.0
2018-Jul-17 01:00N 45°60' W 122°51'0 0.0
2018-Jul-17 00:30N 45°60' W 122°51'0 0.0
2018-Jul-16 23:29N 45°60' W 122°51'0 0.0
2018-Jul-16 23:00N 45°60' W 122°51'0 0.0
2018-Jul-16 22:29N 45°60' W 122°51'0 0.0
2018-Jul-16 22:00N 45°60' W 122°51'0 0.0
2018-Jul-16 21:30N 45°60' W 122°51'0 0.0
2018-Jul-16 21:00N 45°60' W 122°51'0 0.0
2018-Jul-16 20:30N 45°60' W 122°51'0 0.0
2018-Jul-16 20:00N 45°60' W 122°51'0 0.0
2018-Jul-16 19:31N 45°60' W 122°51'0 0.0
2018-Jul-16 19:00N 45°60' W 122°51'1 1.2
2018-Jul-16 18:30N 46°00' W 122°51'3 5.9
2018-Jul-16 18:01N 46°03' W 122°53'4 7.4
2018-Jul-16 17:30N 46°06' W 122°56'4 8.0
2018-Jul-16 17:00N 46°08' W 123°01'4 7.1
2018-Jul-16 16:30N 46°10' W 123°05'4 7.8
2018-Jul-16 16:00N 46°11' W 123°11'4 8.1
2018-Jul-16 15:30N 46°09' W 123°16'4 8.1
2018-Jul-16 15:00N 46°09' W 123°21'4 7.1
2018-Jul-16 14:30N 46°11' W 123°26'4 8.2
2018-Jul-16 14:00N 46°15' W 123°26'4 7.7
2018-Jul-16 13:30N 46°16' W 123°32'5 8.9
2018-Jul-16 13:00N 46°16' W 123°38'4 9.1
2018-Jul-16 12:30N 46°14' W 123°44'4 8.5
2018-Jul-16 12:00N 46°11' W 123°49'0 0.1
2018-Jul-16 11:30N 46°11' W 123°49'0 0.0
2018-Jul-16 11:00N 46°11' W 123°49'0 0.0
2018-Jul-16 10:30N 46°11' W 123°49'0 0.0
2018-Jul-16 10:00N 46°11' W 123°49'0 0.0
2018-Jul-16 09:30N 46°11' W 123°49'0 0.0
2018-Jul-16 09:00N 46°11' W 123°49'0 0.0
2018-Jul-16 08:30N 46°11' W 123°49'0 0.0
2018-Jul-16 08:00N 46°11' W 123°49'0 0.0
2018-Jul-16 07:30N 46°11' W 123°49'0 0.0
2018-Jul-16 06:57N 46°11' W 123°49'0 0.0
2018-Jul-16 06:27N 46°11' W 123°49'0 0.0
2018-Jul-16 05:57N 46°11' W 123°49'0 0.0
2018-Jul-16 05:30N 46°11' W 123°49'0 0.0
2018-Jul-16 05:00N 46°11' W 123°49'0 0.0
2018-Jul-16 04:30N 46°11' W 123°49'0 0.0
2018-Jul-16 04:00N 46°11' W 123°49'0 0.0
2018-Jul-16 03:30N 46°11' W 123°49'0 0.0
2018-Jul-16 03:00N 46°11' W 123°49'0 0.0
2018-Jul-16 02:24N 46°11' W 123°49'0 0.0
2018-Jul-16 02:00N 46°11' W 123°49'0 0.0
2018-Jul-16 01:30N 46°11' W 123°49'0 0.0
2018-Jul-16 01:00N 46°11' W 123°49'0 0.0
2018-Jul-16 00:30N 46°11' W 123°49'0 0.0
2018-Jul-16 00:00N 46°11' W 123°49'0 0.0
2018-Jul-15 23:30N 46°11' W 123°49'0 0.0
2018-Jul-15 23:00N 46°11' W 123°49'0 0.0
2018-Jul-15 22:30N 46°11' W 123°49'0 0.0
2018-Jul-15 22:00N 46°11' W 123°49'0 0.0
2018-Jul-15 21:30N 46°11' W 123°49'0 0.0
2018-Jul-15 21:00N 46°11' W 123°49'0 0.0
2018-Jul-15 20:30N 46°11' W 123°49'0 0.0
2018-Jul-15 20:00N 46°11' W 123°49'0 0.0
2018-Jul-15 19:30N 46°11' W 123°49'0 0.0
2018-Jul-15 19:00N 46°11' W 123°49'0 0.0
2018-Jul-15 18:30N 46°11' W 123°49'0 0.0
2018-Jul-15 18:00N 46°11' W 123°49'0 0.0
2018-Jul-15 17:30N 46°11' W 123°49'0 0.0
2018-Jul-15 17:00N 46°11' W 123°49'0 0.0
2018-Jul-15 16:30N 46°11' W 123°49'0 0.0
2018-Jul-15 16:00N 46°11' W 123°49'0 0.0
2018-Jul-15 15:30N 46°11' W 123°49'0 0.0
2018-Jul-15 15:00N 46°11' W 123°49'0 0.0
2018-Jul-15 14:30N 46°11' W 123°49'0 0.0
2018-Jul-15 14:00N 46°11' W 123°49'0 0.0
2018-Jul-15 13:27N 46°11' W 123°49'0 0.0
2018-Jul-15 13:00N 46°11' W 123°49'0 0.0
2018-Jul-15 12:30N 46°11' W 123°49'0 0.0
2018-Jul-15 12:00N 46°11' W 123°49'0 0.0
2018-Jul-15 11:30N 46°11' W 123°49'0 0.0
2018-Jul-15 10:57N 46°11' W 123°49'0 0.0
2018-Jul-15 10:30N 46°11' W 123°49'0 0.0
2018-Jul-15 10:00N 46°11' W 123°49'0 0.0
2018-Jul-15 09:30N 46°11' W 123°49'0 0.0
2018-Jul-15 09:00N 46°11' W 123°49'0 0.0
2018-Jul-15 08:30N 46°11' W 123°49'0 0.0
2018-Jul-15 07:57N 46°11' W 123°49'0 0.0
2018-Jul-15 07:30N 46°11' W 123°49'0 0.0
2018-Jul-15 06:57N 46°11' W 123°49'0 0.0
2018-Jul-15 06:30N 46°11' W 123°49'0 0.0
2018-Jul-15 06:00N 46°11' W 123°49'0 0.0
2018-Jul-15 05:30N 46°11' W 123°49'0 0.0
2018-Jul-15 05:00N 46°11' W 123°49'0 0.0
2018-Jul-15 04:30N 46°11' W 123°49'0 0.2
2018-Jul-15 04:01N 46°11' W 123°49'4 8.1
2018-Jul-15 03:30N 46°14' W 123°44'611.1
2018-Jul-15 03:01N 46°15' W 123°37'4 8.8
2018-Jul-15 02:30N 46°16' W 123°30'5 9.4
2018-Jul-15 02:01N 46°13' W 123°25'5 9.3
2018-Jul-15 01:30N 46°09' W 123°22'5 9.9
2018-Jul-15 01:00N 46°09' W 123°15'5 9.6
2018-Jul-15 00:30N 46°11' W 123°09'5 9.6
2018-Jul-15 00:01N 46°09' W 123°03'8 9.9
2018-Jul-14 23:13N 46°05' W 122°54'210.7
2018-Jul-14 23:00N 46°02' W 122°53'510.8
2018-Jul-14 22:30N 45°58' W 122°49'611.5
2018-Jul-14 22:01N 45°52' W 122°47'611.1
2018-Jul-14 21:30N 45°47' W 122°46'611.1
2018-Jul-14 20:59N 45°41' W 122°47'510.4
2018-Jul-14 20:30N 45°37' W 122°41'1 1.1
2018-Jul-14 19:45N 45°37' W 122°40'0 0.0
2018-Jul-14 19:30N 45°37' W 122°40'0 0.0
2018-Jul-14 18:57N 45°37' W 122°40'0 0.0
2018-Jul-14 18:27N 45°37' W 122°40'0 0.0
2018-Jul-14 17:57N 45°37' W 122°40'0 0.0
2018-Jul-14 17:27N 45°37' W 122°40'0 0.0
2018-Jul-14 17:00N 45°37' W 122°40'0 0.0
2018-Jul-14 16:27N 45°37' W 122°40'0 0.0
2018-Jul-14 16:00N 45°37' W 122°40'0 0.0
2018-Jul-14 15:30N 45°37' W 122°40'0 0.0
2018-Jul-14 14:57N 45°37' W 122°40'0 0.0
2018-Jul-14 14:24N 45°37' W 122°40'0 0.0
2018-Jul-14 13:27N 45°37' W 122°40'0 0.0
2018-Jul-14 13:00N 45°37' W 122°40'0 0.0
2018-Jul-14 12:30N 45°37' W 122°40'0 0.0
2018-Jul-14 11:48N 45°37' W 122°40'0 0.0
2018-Jul-14 11:30N 45°37' W 122°40'0 0.0
2018-Jul-14 10:51N 45°37' W 122°40'0 0.0
2018-Jul-14 10:24N 45°37' W 122°40'0 0.0
2018-Jul-14 09:54N 45°37' W 122°40'0 0.0
2018-Jul-14 09:09N 45°37' W 122°40'0 0.0
2018-Jul-14 08:54N 45°37' W 122°40'0 0.0
2018-Jul-14 08:27N 45°37' W 122°40'0 0.0
2018-Jul-14 08:00N 45°37' W 122°40'0 0.0
2018-Jul-14 07:24N 45°37' W 122°40'0 0.0
2018-Jul-14 06:57N 45°37' W 122°40'0 0.0
2018-Jul-14 06:30N 45°37' W 122°40'0 0.0
2018-Jul-14 06:00N 45°37' W 122°40'0 0.0
2018-Jul-14 05:27N 45°37' W 122°40'0 0.0
2018-Jul-14 04:57N 45°37' W 122°40'0 0.0
2018-Jul-14 04:30N 45°37' W 122°40'0 0.0
2018-Jul-14 04:00N 45°37' W 122°40'0 0.0
2018-Jul-14 03:21N 45°37' W 122°40'0 0.0
2018-Jul-14 03:00N 45°37' W 122°40'0 0.0
2018-Jul-14 02:27N 45°37' W 122°40'0 0.0
2018-Jul-14 01:33N 45°37' W 122°40'0 0.0
2018-Jul-14 01:30N 45°37' W 122°40'0 0.0
2018-Jul-14 01:00N 45°37' W 122°40'0 0.0
2018-Jul-14 00:24N 45°37' W 122°40'0 0.0
2018-Jul-13 23:45N 45°37' W 122°40'0 0.0
2018-Jul-13 23:30N 45°37' W 122°40'0 0.0
2018-Jul-13 22:57N 45°37' W 122°40'0 0.0
2018-Jul-13 22:30N 45°37' W 122°40'0 0.0
2018-Jul-13 21:57N 45°37' W 122°40'0 0.0
2018-Jul-13 21:30N 45°37' W 122°40'0 0.0
2018-Jul-13 21:00N 45°37' W 122°40'0 0.4
2018-Jul-13 20:16N 45°37' W 122°41'2 7.0
2018-Jul-13 20:00N 45°38' W 122°43'4 7.9
2018-Jul-13 19:30N 45°41' W 122°47'4 8.0
2018-Jul-13 19:00N 45°45' W 122°46'4 7.9
2018-Jul-13 18:30N 45°49' W 122°48'4 7.5
2018-Jul-13 18:00N 45°52' W 122°47'4 7.5
2018-Jul-13 17:30N 45°56' W 122°48'4 7.6
2018-Jul-13 17:00N 45°60' W 122°51'4 7.5
2018-Jul-13 16:30N 46°03' W 122°53'3 7.1
2018-Jul-13 16:00N 46°06' W 122°56'4 7.7
2018-Jul-13 15:30N 46°08' W 123°01'4 7.3
2018-Jul-13 15:00N 46°10' W 123°05'7 6.7
2018-Jul-13 14:00N 46°10' W 123°15'4 7.3
2018-Jul-13 13:30N 46°09' W 123°20'4 7.1
2018-Jul-13 13:00N 46°10' W 123°24'3 6.6
2018-Jul-13 12:30N 46°13' W 123°25'4 7.2
2018-Jul-13 12:00N 46°16' W 123°28'4 7.3
2018-Jul-13 11:30N 46°15' W 123°33'4 7.4
2018-Jul-13 11:00N 46°16' W 123°39'4 7.8
2018-Jul-13 10:30N 46°14' W 123°44'4 7.3
2018-Jul-13 10:00N 46°12' W 123°48'1 1.9
2018-Jul-13 09:28N 46°11' W 123°49'0 0.0
2018-Jul-13 08:58N 46°11' W 123°49'0 0.0
2018-Jul-13 08:28N 46°11' W 123°49'0 0.0
2018-Jul-13 07:58N 46°11' W 123°49'0 0.0
2018-Jul-13 07:28N 46°11' W 123°49'0 0.0
2018-Jul-13 06:58N 46°11' W 123°49'0 0.0
2018-Jul-13 06:28N 46°11' W 123°49'0 0.0
2018-Jul-13 05:58N 46°11' W 123°49'0 0.0
2018-Jul-13 05:28N 46°11' W 123°49'0 0.0
2018-Jul-13 04:58N 46°11' W 123°49'0 0.0
2018-Jul-13 04:28N 46°11' W 123°49'0 0.0
2018-Jul-13 03:58N 46°11' W 123°49'0 0.0
2018-Jul-13 03:28N 46°11' W 123°49'0 0.0
2018-Jul-13 02:58N 46°11' W 123°49'0 0.0
2018-Jul-13 02:28N 46°11' W 123°49'0 0.0
2018-Jul-13 01:55N 46°11' W 123°49'0 0.0
2018-Jul-13 01:28N 46°11' W 123°49'0 0.0
2018-Jul-13 00:58N 46°11' W 123°49'0 0.0
2018-Jul-13 00:28N 46°11' W 123°49'0 0.0
2018-Jul-12 23:55N 46°11' W 123°49'0 0.0
2018-Jul-12 23:28N 46°11' W 123°49'0 0.0
2018-Jul-12 22:58N 46°11' W 123°49'0 0.0
2018-Jul-12 22:28N 46°11' W 123°49'0 0.0
2018-Jul-12 21:58N 46°11' W 123°49'0 0.0
2018-Jul-12 21:28N 46°11' W 123°49'0 0.0
2018-Jul-12 20:58N 46°11' W 123°49'0 0.0
2018-Jul-12 20:28N 46°11' W 123°49'0 0.0
2018-Jul-12 19:37N 46°11' W 123°49'0 0.0
2018-Jul-12 19:28N 46°11' W 123°49'0 0.0
2018-Jul-12 18:58N 46°11' W 123°49'0 0.0
2018-Jul-12 18:25N 46°11' W 123°49'0 0.0
2018-Jul-12 17:58N 46°11' W 123°49'0 0.0
2018-Jul-12 17:16N 46°11' W 123°49'0 0.0
2018-Jul-12 16:58N 46°11' W 123°49'0 0.0
2018-Jul-12 16:25N 46°11' W 123°49'0 0.0
2018-Jul-12 15:58N 46°11' W 123°49'0 0.0
2018-Jul-12 15:28N 46°11' W 123°49'0 0.0
2018-Jul-12 14:58N 46°11' W 123°49'0 0.0
2018-Jul-12 14:28N 46°11' W 123°49'0 0.0
2018-Jul-12 13:58N 46°11' W 123°49'0 0.0
2018-Jul-12 13:22N 46°11' W 123°49'0 0.0
2018-Jul-12 12:58N 46°11' W 123°49'0 0.0
2018-Jul-12 12:16N 46°11' W 123°49'0 0.0
2018-Jul-12 11:58N 46°11' W 123°49'0 0.0
2018-Jul-12 11:28N 46°11' W 123°49'0 0.0
2018-Jul-12 10:31N 46°11' W 123°49'0 0.0
2018-Jul-12 10:28N 46°11' W 123°49'0 0.0
2018-Jul-12 09:46N 46°11' W 123°49'0 0.0
2018-Jul-12 09:28N 46°11' W 123°49'0 0.0
2018-Jul-12 08:52N 46°11' W 123°49'0 0.0
2018-Jul-12 07:55N 46°11' W 123°49'0 0.0
2018-Jul-12 07:28N 46°11' W 123°49'0 0.0
2018-Jul-12 06:58N 46°11' W 123°49'0 0.0
2018-Jul-12 06:28N 46°11' W 123°49'0 0.0
2018-Jul-12 06:00N 46°11' W 123°49'3 5.8
2018-Jul-12 05:30N 46°13' W 123°46'4 8.6
2018-Jul-12 05:00N 46°15' W 123°40'5 9.2
2018-Jul-12 04:24N 46°16' W 123°33'4 9.3
2018-Jul-12 04:00N 46°16' W 123°27'510.6
2018-Jul-12 03:30N 46°10' W 123°25'710.4
2018-Jul-12 02:48N 46°10' W 123°15'412.0
2018-Jul-12 02:30N 46°11' W 123°10'611.3
2018-Jul-12 02:00N 46°09' W 123°03'611.2
2018-Jul-12 01:31N 46°06' W 122°56'510.4
2018-Jul-12 01:00N 46°01' W 122°52'2 3.9
2018-Jul-12 00:31N 45°60' W 122°51'0 0.0
2018-Jul-12 00:00N 45°60' W 122°51'0 0.0
2018-Jul-11 23:30N 45°60' W 122°51'0 0.0
2018-Jul-11 23:01N 45°60' W 122°51'0 0.0
2018-Jul-11 22:30N 45°60' W 122°51'0 0.0
2018-Jul-11 22:01N 45°60' W 122°51'0 0.0
2018-Jul-11 21:30N 45°60' W 122°51'0 0.0
2018-Jul-11 21:00N 45°60' W 122°51'0 0.0
2018-Jul-11 20:30N 45°60' W 122°51'0 0.0
2018-Jul-11 20:01N 45°60' W 122°51'0 0.0
2018-Jul-11 19:31N 45°60' W 122°51'0 0.0
2018-Jul-11 19:00N 45°60' W 122°51'3 6.1
2018-Jul-11 18:30N 45°57' W 122°48'611.3
2018-Jul-11 18:01N 45°52' W 122°47'510.9
2018-Jul-11 17:30N 45°46' W 122°46'611.4
2018-Jul-11 17:00N 45°40' W 122°46'510.4
2018-Jul-11 16:30N 45°37' W 122°41'611.1
2018-Jul-11 16:00N 45°36' W 122°33'611.9
2018-Jul-11 15:31N 45°34' W 122°25'611.3
2018-Jul-11 15:00N 45°33' W 122°17'611.1
2018-Jul-11 14:30N 45°35' W 122°10'610.4
2018-Jul-11 13:58N 45°37' W 122°02'  

Dump ship's entire track history